Portada
METAR-TAF:

METAR-TAF

Aeropuertos :

Aeropuerto de Melilla

Melilla, España

latitud: 35-17N, longitud: 002-57W, altitud: 47 m

Observación

El informe se hizo hace 49 minutos, a las 07:30 UTC
Viento 2 kt con dirección variable
Temperatura 13°C
Humedad 82%
Presión 1031 hPa
Visibilidad 10 km o más
Escasas nubes a una altura de 1700 ft
Cielo nuboso a una altura de 2200 ft

METAR: GEML 220730Z VRB02KT 9999 FEW017 BKN022 13/10 Q1031

Hora: 09:19 (08:19 UTC)

Pronóstico

El informe se hizo hace 6 horas y 19 minutos, a las 02:00 UTC
Pronóstico válido del 22 a las 03 UTC al 23 a las 03 UTC
Viento 5 kt del este
Visibilidad 10 km o más
Nubes dispersas a una altura de 1500 ft
Nubes dispersas a una altura de 3000 ft
Temporalmente
del 22 a las 03 UTC al 22 a las 10 UTC
Cielo nuboso a una altura de 1200 ft

TAF: GEML 220200Z 2203/2303 08005KT 9999 SCT015 SCT030 TX17/2215Z TN12/2206Z TEMPO 2203/2210 BKN012

Observaciones y pronósticos meteorológicos de más de 4000 aeropuertos (mensajes METAR y TAF).

Los puntos amarillos y rojos representan las estaciones disponibles.

Ponga el ratón en el punto deseado para ver el nombre de la estación.

Haga clic para ver las observaciones y los pronósticos meteorológicos.

Para cambiar el mapa : haga clic en los botones verdes con una cruz de color negro para hacer un zoom, en el botón verde con un guión para alejar o en las flechas verdes para mapas adyacentes.


METAR-TAF: